Medford, OR (97501)

14:00 PDT le 01 septembre 2014 (GMT -0700)
Southwest Medford (CW2551) | Change Station
CLOSE
Current Station
Stations météorologiques personnelles
Location: Medford, OR
Altitude: 1472 ft
Stations météo à proximité

Alt. 1472 ft 42.31 °N, 122.90 °W | Updated 13 seconds ago

Clear
Ciel dégagé
83.2 ° F
Paraît 82 ° F
N
5.8
Vent Variable Vent de Nord
Gusts 5.8 mph

Aujourd'hui
Haut(e) -- | Bas -- ° F
--% Risque de précip.
Hier
Haut(e) -- | Bas -- ° F
Precip. -- pouce
6:36 AM 7:45 PM
Lune montante, 44% visible
Pression 29.92 pouce
Visibilité 10.0 Miles terrestres
Nuages Ciel dégagé
indice de chaleur 82 ° F
Point de rosée 51 ° F
Humidité 33%
Précipitations 0.00 pouce
Profondeur de la couche neigeuse Non disponible.
UV 4.1 sur 12
Pollen 5.80 sur 12
Qualité de l'air Non disponible.
Flu Activity Non disponible.
METAR KMFR 012053Z 27003KT 10SM CLR 28/07 A2995 RMK AO2 SLP132 T02830067 56029

More Conditions Fewer Conditions

Pression 29.92 pouce
Visibilité 10.0 Miles terrestres
Nuages Ciel dégagé
indice de chaleur 82 ° F
Point de rosée 51 ° F
Humidité 33%
Précipitations 0.00 pouce
Profondeur de la couche neigeuse Non disponible.
UV 4.1 sur 12
Pollen 5.80 sur 12
Qualité de l'air Non disponible.
Flu Activity Non disponible.
METAR KMFR 012053Z 27003KT 10SM CLR 28/07 A2995 RMK AO2 SLP132 T02830067 56029

More Conditions Fewer Conditions

10-Day Weather Forecast

Almanac

Astronomie

Sep. 01, 2014 Lever Coucher
Temps réel 06:36 PDT 19:45 PDT
Crépuscule civil 06:07 PDT 20:14 PDT
Crépuscule nautique 05:33 PDT 20:48 PDT
Crépuscule astronomique 04:57 PDT 21:24 PDT
Lune 13:35 PDT 23:43 PDT
Durée de lumière visible 14h 06m
Longueur du jour
13h 08m
Tomorrow will be 2m 45s shorter.
Lune montante, 44% of the Moon is Illuminated
Aujourd'hui
Lune montante
Sep 2
Premier quartier
Sep 8
Pleine lune
Sep 15
Dernier quartier
Sep 24
Nouveau

Extrêmes aujourd'hui

State Highs State Lows

Community

WunderPhotos

Upload Photos

1,749,407 Photos téléchargées !

WunderBlogs® & News

Nearby

Épaisseur de neige

Station Depth Altitude
Fish Lake 0 in 4665 ft
Bigelow Camp 0 in 5120 ft
Fourmile Lake 1 in 6000 ft
Cold Springs Camp 0 in 6100 ft
Sevenmile Marsh 0 in 6200 ft

Activité sismique

Ville Distance Mag. Time & Date
No recent earthquake activity has been reported nearby.
Minimum magnitude displayed is 2.5.

Températures des eaux côtières

Lieu Température
Aucun rapport de station

Stations météo à proximité